Time;durP1;ratioP1;P1;durP2;ratioP2;P2;SDS_P1;SDS_P2;PMS_P1;PMS_P2;Temp;Humidity;BMP_temperature;BMP_pressure;BME280_temperature;BME280_humidity;BME280_pressure;Samples;Min_cycle;Max_cycle;Signal;HPM_P1;HPM_P2
2023/03/20 00:00:17;;;;;;;33.85;13.60;;;;;;;;;;8432044;28;20398;-84
2023/03/20 00:04:40;;;;;;;36.70;14.40;;;;;;;;;;8432401;28;20048;-81
2023/03/20 00:08:44;;;;;;;36.70;15.82;;;;;;;;;;8418544;28;20040;-85
2023/03/20 00:12:50;;;;;;;38.20;14.38;;;;;;;;;;8432419;28;20458;-83
2023/03/20 00:16:53;;;;;;;36.15;15.52;;;;;;;;;;8432236;28;20044;-82
2023/03/20 00:20:56;;;;;;;35.50;15.10;;;;;;;;;;8432199;28;20541;-85
2023/03/20 00:24:59;;;;;;;33.50;15.40;;;;;;;;;;8431225;28;20480;-83
2023/03/20 00:29:05;;;;;;;33.80;15.25;;;;;;;;;;8410321;28;20461;-83
2023/03/20 00:33:10;;;;;;;41.03;16.55;;;;;;;;;;8388412;28;20045;-82
2023/03/20 00:37:13;;;;;;;38.33;16.58;;;;;;;;;;8379215;28;20053;-83
2023/03/20 00:41:24;;;;;;;36.30;15.27;;;;;;;;;;8382567;28;20496;-84
2023/03/20 00:45:30;;;;;;;34.72;15.35;;;;;;;;;;8390918;28;20049;-88
2023/03/20 00:49:34;;;;;;;34.65;13.60;;;;;;;;;;8385297;28;20044;-83
2023/03/20 00:53:37;;;;;;;29.65;13.32;;;;;;;;;;8386220;28;20052;-85
2023/03/20 00:57:46;;;;;;;34.92;13.75;;;;;;;;;;8430725;28;20044;-85
2023/03/20 01:01:50;;;;;;;31.77;14.13;;;;;;;;;;8407039;28;20404;-83
2023/03/20 01:05:53;;;;;;;31.90;13.70;;;;;;;;;;8395768;28;20091;-85
2023/03/20 01:09:56;;;;;;;26.83;13.20;;;;;;;;;;8406291;28;20036;-86
2023/03/20 01:13:59;;;;;;;34.67;13.75;;;;;;;;;;8411318;28;20053;-86
2023/03/20 01:18:03;;;;;;;29.58;13.90;;;;;;;;;;8389998;28;20051;-82
2023/03/20 01:22:06;;;;;;;33.67;16.80;;;;;;;;;;8429999;28;20048;-82
2023/03/20 01:26:21;;;;;;;32.58;13.88;;;;;;;;;;8427176;28;20052;-83
2023/03/20 01:30:26;;;;;;;31.77;14.43;;;;;;;;;;8404255;28;20044;-82
2023/03/20 01:34:31;;;;;;;42.58;16.67;;;;;;;;;;8412969;28;20055;-84
2023/03/20 01:38:33;;;;;;;35.95;15.80;;;;;;;;;;8423353;28;20067;-85
2023/03/20 01:42:37;;;;;;;30.50;12.68;;;;;;;;;;8406662;28;20511;-85
2023/03/20 01:46:40;;;;;;;33.17;13.85;;;;;;;;;;8385540;28;20537;-83
2023/03/20 01:50:44;;;;;;;29.23;14.18;;;;;;;;;;8403771;28;20059;-83
2023/03/20 01:54:47;;;;;;;31.27;14.88;;;;;;;;;;8385926;28;20048;-83
2023/03/20 01:58:56;;;;;;;29.67;13.32;;;;;;;;;;8415124;28;20396;-84
2023/03/20 02:02:59;;;;;;;31.30;14.63;;;;;;;;;;8421037;28;20051;-84
2023/03/20 02:07:05;;;;;;;32.95;13.90;;;;;;;;;;8406779;28;20065;-84
2023/03/20 02:11:08;;;;;;;30.17;13.23;;;;;;;;;;8388225;28;20072;-84
2023/03/20 02:15:15;;;;;;;31.52;13.85;;;;;;;;;;8399056;28;20507;-86
2023/03/20 02:19:25;;;;;;;29.75;12.95;;;;;;;;;;8412437;28;20159;-83
2023/03/20 02:24:08;;;;;;;28.75;12.57;;;;;;;;;;8394514;28;20508;-84
2023/03/20 02:28:55;;;;;;;24.77;12.20;;;;;;;;;;8407243;28;20059;-83
2023/03/20 02:33:30;;;;;;;33.15;14.48;;;;;;;;;;8411173;28;20041;-83
2023/03/20 02:38:09;;;;;;;30.75;13.02;;;;;;;;;;8400724;28;20048;-83
2023/03/20 02:42:18;;;;;;;21.85;11.07;;;;;;;;;;8407957;28;20472;-85
2023/03/20 02:46:32;;;;;;;27.15;12.93;;;;;;;;;;8403745;28;20045;-83
2023/03/20 02:50:41;;;;;;;25.83;11.50;;;;;;;;;;8427674;28;20069;-82
2023/03/20 02:54:57;;;;;;;26.92;11.52;;;;;;;;;;8427906;28;20056;-83
2023/03/20 02:59:08;;;;;;;30.45;11.60;;;;;;;;;;8427919;28;20040;-85
2023/03/20 03:03:15;;;;;;;29.88;12.00;;;;;;;;;;8427783;28;20039;-86
2023/03/20 03:07:22;;;;;;;24.02;12.23;;;;;;;;;;8428244;28;20044;-82
2023/03/20 03:11:26;;;;;;;27.17;12.50;;;;;;;;;;8414124;28;20055;-82
2023/03/20 03:15:33;;;;;;;27.90;12.52;;;;;;;;;;8427789;28;20046;-86
2023/03/20 03:19:38;;;;;;;34.63;14.32;;;;;;;;;;8427477;28;20052;-83
2023/03/20 03:23:43;;;;;;;37.22;15.38;;;;;;;;;;8427776;28;20095;-83
2023/03/20 03:27:54;;;;;;;33.50;13.98;;;;;;;;;;8427681;28;20533;-85
2023/03/20 03:31:57;;;;;;;261.80;76.50;;;;;;;;;;8427958;28;20495;-83
2023/03/20 03:36:07;;;;;;;88.25;29.38;;;;;;;;;;8433082;28;20044;-84
2023/03/20 03:40:19;;;;;;;58.20;24.48;;;;;;;;;;8433302;28;20484;-84
2023/03/20 03:44:29;;;;;;;34.33;15.75;;;;;;;;;;8433212;28;20036;-83
2023/03/20 03:48:36;;;;;;;36.95;12.38;;;;;;;;;;8432806;28;20044;-82
2023/03/20 03:52:41;;;;;;;25.85;13.50;;;;;;;;;;8433073;28;20040;-83
2023/03/20 03:56:47;;;;;;;33.25;13.27;;;;;;;;;;8432795;28;20048;-83
2023/03/20 04:00:54;;;;;;;33.58;12.43;;;;;;;;;;8430621;28;20055;-86
2023/03/20 04:04:58;;;;;;;32.03;14.35;;;;;;;;;;8411374;28;20048;-83
2023/03/20 04:09:01;;;;;;;29.33;13.68;;;;;;;;;;8432660;28;20105;-83
2023/03/20 04:13:04;;;;;;;37.38;16.73;;;;;;;;;;8432047;28;20403;-82
2023/03/20 04:17:08;;;;;;;31.60;13.85;;;;;;;;;;8431794;28;20067;-83
2023/03/20 04:21:11;;;;;;;29.10;13.68;;;;;;;;;;8431700;28;20510;-83
2023/03/20 04:25:21;;;;;;;30.95;14.82;;;;;;;;;;8412715;28;20449;-82
2023/03/20 04:29:24;;;;;;;32.10;15.30;;;;;;;;;;8431316;28;20044;-83
2023/03/20 04:33:28;;;;;;;28.58;13.27;;;;;;;;;;8431750;28;20485;-83
2023/03/20 04:37:31;;;;;;;24.33;10.70;;;;;;;;;;8431172;28;20040;-82
2023/03/20 04:41:34;;;;;;;27.70;11.68;;;;;;;;;;8431695;28;20048;-83
2023/03/20 04:45:36;;;;;;;27.60;12.38;;;;;;;;;;8397878;28;20055;-83
2023/03/20 04:49:41;;;;;;;29.92;12.90;;;;;;;;;;8411266;28;20059;-83
2023/03/20 04:53:44;;;;;;;26.60;11.85;;;;;;;;;;8411797;28;20140;-82
2023/03/20 04:57:47;;;;;;;27.02;12.75;;;;;;;;;;8423175;28;20048;-82
2023/03/20 05:01:49;;;;;;;27.08;12.23;;;;;;;;;;8425017;28;20443;-83
2023/03/20 05:05:54;;;;;;;26.50;11.10;;;;;;;;;;8430654;28;20047;-83
2023/03/20 05:09:57;;;;;;;24.20;10.82;;;;;;;;;;8416495;28;20055;-82
2023/03/20 05:14:00;;;;;;;22.10;11.15;;;;;;;;;;8430420;28;20040;-81
2023/03/20 05:18:02;;;;;;;31.95;13.60;;;;;;;;;;8430098;28;20044;-82
2023/03/20 05:22:07;;;;;;;34.70;15.98;;;;;;;;;;8430310;28;20055;-83
2023/03/20 05:26:09;;;;;;;24.58;11.10;;;;;;;;;;8416103;28;20127;-83
2023/03/20 05:30:13;;;;;;;40.03;17.50;;;;;;;;;;8430018;28;20052;-82
2023/03/20 05:34:16;;;;;;;21.83;9.75;;;;;;;;;;8429685;28;20151;-82
2023/03/20 05:38:21;;;;;;;27.75;12.68;;;;;;;;;;8416670;28;20098;-83
2023/03/20 05:42:24;;;;;;;49.72;26.20;;;;;;;;;;8429826;28;20537;-83
2023/03/20 05:46:27;;;;;;;43.05;26.13;;;;;;;;;;8429407;28;20384;-83
2023/03/20 05:50:30;;;;;;;89.40;49.75;;;;;;;;;;8428638;28;20088;-82
2023/03/20 05:54:34;;;;;;;117.72;61.00;;;;;;;;;;8428478;28;20484;-82
2023/03/20 05:58:37;;;;;;;299.08;107.95;;;;;;;;;;8396727;28;20056;-83
2023/03/20 06:02:40;;;;;;;181.13;51.92;;;;;;;;;;8413572;28;20123;-82
2023/03/20 06:06:43;;;;;;;251.93;82.53;;;;;;;;;;8415515;28;20113;-83
2023/03/20 06:10:50;;;;;;;94.85;33.38;;;;;;;;;;8426013;28;20059;-85
2023/03/20 06:14:53;;;;;;;180.95;52.88;;;;;;;;;;8390464;28;20048;-84
2023/03/20 06:18:55;;;;;;;104.88;39.08;;;;;;;;;;8380369;28;20041;-83
2023/03/20 06:22:58;;;;;;;92.50;31.85;;;;;;;;;;8385678;28;20451;-84
2023/03/20 06:27:03;;;;;;;43.60;20.98;;;;;;;;;;8385951;28;20073;-83
2023/03/20 06:31:08;;;;;;;54.03;22.58;;;;;;;;;;8395969;28;20113;-83
2023/03/20 06:35:13;;;;;;;26.23;15.35;;;;;;;;;;8403998;28;20075;-84
2023/03/20 06:39:15;;;;;;;32.30;15.65;;;;;;;;;;8408479;28;20044;-84
2023/03/20 06:43:20;;;;;;;49.30;24.60;;;;;;;;;;8415018;28;20159;-83
2023/03/20 06:47:23;;;;;;;50.20;22.40;;;;;;;;;;8427610;28;20113;-83
2023/03/20 06:51:26;;;;;;;51.97;23.58;;;;;;;;;;8403668;28;20074;-82
2023/03/20 06:55:29;;;;;;;49.60;22.13;;;;;;;;;;8424304;28;20052;-84
2023/03/20 06:59:35;;;;;;;39.78;18.52;;;;;;;;;;8412416;28;20040;-83
2023/03/20 07:03:38;;;;;;;83.25;32.13;;;;;;;;;;8423155;28;20040;-82
2023/03/20 07:07:41;;;;;;;164.38;57.80;;;;;;;;;;8430389;28;20048;-84
2023/03/20 07:11:45;;;;;;;131.38;47.58;;;;;;;;;;8435396;28;20056;-83
2023/03/20 07:15:50;;;;;;;155.18;49.67;;;;;;;;;;8437933;28;20133;-83
2023/03/20 07:19:53;;;;;;;189.40;60.97;;;;;;;;;;8436307;28;20048;-83
2023/03/20 07:23:55;;;;;;;186.30;57.00;;;;;;;;;;8433743;28;20040;-83
2023/03/20 07:27:58;;;;;;;168.40;49.67;;;;;;;;;;8433465;28;20152;-83
2023/03/20 07:32:03;;;;;;;86.32;33.95;;;;;;;;;;8433685;28;20043;-84
2023/03/20 07:36:07;;;;;;;66.47;28.25;;;;;;;;;;8433537;28;20051;-84
2023/03/20 07:40:11;;;;;;;48.47;23.77;;;;;;;;;;8433479;28;20052;-84
2023/03/20 07:44:14;;;;;;;73.72;35.00;;;;;;;;;;8432807;28;20039;-83
2023/03/20 07:48:18;;;;;;;45.63;22.30;;;;;;;;;;8422829;28;20147;-84
2023/03/20 07:52:21;;;;;;;36.22;18.80;;;;;;;;;;8429930;28;20464;-83
2023/03/20 07:56:24;;;;;;;40.83;21.35;;;;;;;;;;8409703;28;20074;-83
2023/03/20 08:00:27;;;;;;;46.58;21.05;;;;;;;;;;8399273;28;20050;-83
2023/03/20 08:04:31;;;;;;;42.72;21.85;;;;;;;;;;8422670;28;20052;-84
2023/03/20 08:08:34;;;;;;;42.75;22.40;;;;;;;;;;8432280;28;20051;-83
2023/03/20 08:12:37;;;;;;;46.38;23.50;;;;;;;;;;8432049;28;20056;-84
2023/03/20 08:16:40;;;;;;;45.63;24.50;;;;;;;;;;8431596;28;20048;-82
2023/03/20 08:20:44;;;;;;;46.08;23.48;;;;;;;;;;8417759;28;20105;-83
2023/03/20 08:24:47;;;;;;;53.58;27.10;;;;;;;;;;8432678;28;20040;-83
2023/03/20 08:28:50;;;;;;;46.33;25.95;;;;;;;;;;8431290;28;20497;-84
2023/03/20 08:32:53;;;;;;;43.70;22.23;;;;;;;;;;8431694;28;20043;-84
2023/03/20 08:36:58;;;;;;;44.97;24.90;;;;;;;;;;8431221;28;20052;-83
2023/03/20 08:41:01;;;;;;;52.38;25.92;;;;;;;;;;8417867;28;20613;-83
2023/03/20 08:45:04;;;;;;;44.75;23.05;;;;;;;;;;8431366;28;20040;-83
2023/03/20 08:49:07;;;;;;;41.10;24.63;;;;;;;;;;8430824;28;20108;-84
2023/03/20 08:53:12;;;;;;;45.10;24.05;;;;;;;;;;8420239;28;20055;-83
2023/03/20 08:57:15;;;;;;;40.63;21.27;;;;;;;;;;8429037;28;20393;-83
2023/03/20 09:01:18;;;;;;;45.45;24.13;;;;;;;;;;8430432;28;20044;-82
2023/03/20 09:05:21;;;;;;;40.47;22.10;;;;;;;;;;8430158;28;20047;-83
2023/03/20 09:09:28;;;;;;;38.97;21.73;;;;;;;;;;8430592;28;20118;-84
2023/03/20 09:13:31;;;;;;;41.95;22.40;;;;;;;;;;8430269;28;20044;-84
2023/03/20 09:17:34;;;;;;;38.42;22.10;;;;;;;;;;8430182;28;20446;-83
2023/03/20 09:21:37;;;;;;;35.95;20.42;;;;;;;;;;8426211;28;20115;-83
2023/03/20 09:25:41;;;;;;;39.58;21.17;;;;;;;;;;8407246;28;20088;-84
2023/03/20 09:29:44;;;;;;;35.55;20.05;;;;;;;;;;8428836;28;20043;-85
2023/03/20 09:33:47;;;;;;;33.63;19.10;;;;;;;;;;8429796;28;20480;-84
2023/03/20 09:37:50;;;;;;;33.03;19.55;;;;;;;;;;8429189;28;20045;-84
2023/03/20 09:41:55;;;;;;;36.78;20.00;;;;;;;;;;8429915;28;20093;-82
2023/03/20 09:46:07;;;;;;;35.50;20.42;;;;;;;;;;8429817;28;20517;-83
2023/03/20 09:50:23;;;;;;;36.88;21.40;;;;;;;;;;8428947;28;20048;-82
2023/03/20 09:54:30;;;;;;;33.78;19.20;;;;;;;;;;8429171;28;20056;-82
2023/03/20 09:58:37;;;;;;;37.40;20.20;;;;;;;;;;8428764;28;20048;-83
2023/03/20 10:02:46;;;;;;;34.70;19.88;;;;;;;;;;8428973;28;20455;-84
2023/03/20 10:06:49;;;;;;;38.88;21.38;;;;;;;;;;8428355;28;20064;-82
2023/03/20 10:10:58;;;;;;;40.15;21.30;;;;;;;;;;8429123;28;20040;-82
2023/03/20 10:15:10;;;;;;;41.35;22.55;;;;;;;;;;8428162;28;20147;-83
2023/03/20 10:19:22;;;;;;;37.38;19.67;;;;;;;;;;8428445;28;20054;-83
2023/03/20 10:23:33;;;;;;;44.53;23.95;;;;;;;;;;8428342;28;20040;-84
2023/03/20 10:27:41;;;;;;;49.33;26.50;;;;;;;;;;8428484;28;20076;-82
2023/03/20 10:31:51;;;;;;;37.63;22.75;;;;;;;;;;8428672;28;20036;-84
2023/03/20 10:36:04;;;;;;;38.50;22.80;;;;;;;;;;8428185;28;20040;-83
2023/03/20 10:40:29;;;;;;;35.10;21.20;;;;;;;;;;8428550;28;20044;-83
2023/03/20 10:44:36;;;;;;;34.53;21.05;;;;;;;;;;8429677;28;20055;-83
2023/03/20 10:48:45;;;;;;;45.40;25.48;;;;;;;;;;8434685;28;20553;-83
2023/03/20 10:52:51;;;;;;;41.42;25.52;;;;;;;;;;8434970;28;20066;-83
2023/03/20 10:56:57;;;;;;;55.83;34.20;;;;;;;;;;8434627;28;20404;-82
2023/03/20 11:01:00;;;;;;;42.20;27.27;;;;;;;;;;8434645;28;20040;-83
2023/03/20 11:05:20;;;;;;;36.88;23.15;;;;;;;;;;8434906;28;20048;-83
2023/03/20 11:09:28;;;;;;;39.50;19.90;;;;;;;;;;8421055;28;20170;-81
2023/03/20 11:13:33;;;;;;;35.08;21.83;;;;;;;;;;8433968;28;20040;-83
2023/03/20 11:17:36;;;;;;;34.33;21.38;;;;;;;;;;8433838;28;20531;-83
2023/03/20 11:21:48;;;;;;;36.45;22.00;;;;;;;;;;8433608;28;20039;-83
2023/03/20 11:25:56;;;;;;;34.65;20.63;;;;;;;;;;8433909;28;20059;-83
2023/03/20 11:30:04;;;;;;;37.65;21.67;;;;;;;;;;8433320;28;20406;-83
2023/03/20 11:34:23;;;;;;;41.65;23.58;;;;;;;;;;8434252;28;20040;-83
2023/03/20 11:38:31;;;;;;;47.65;27.52;;;;;;;;;;8425023;28;20419;-83
2023/03/20 11:42:36;;;;;;;39.22;22.80;;;;;;;;;;8402838;28;20551;-85
2023/03/20 11:46:38;;;;;;;41.00;24.95;;;;;;;;;;8392909;28;20044;-85
2023/03/20 11:50:45;;;;;;;37.13;22.08;;;;;;;;;;8384506;28;20064;-86
2023/03/20 11:54:52;;;;;;;44.17;28.65;;;;;;;;;;8392815;28;20408;-85
2023/03/20 11:58:58;;;;;;;33.33;20.25;;;;;;;;;;8404130;28;20548;-86
2023/03/20 12:03:01;;;;;;;30.85;20.05;;;;;;;;;;8422070;28;20044;-85
2023/03/20 12:07:12;;;;;;;23.65;14.77;;;;;;;;;;8391650;28;20037;-85
2023/03/20 12:11:42;;;;;;;23.17;15.82;;;;;;;;;;8391973;28;20049;-85
2023/03/20 12:15:50;;;;;;;27.05;16.92;;;;;;;;;;8402467;28;20106;-85
2023/03/20 12:19:55;;;;;;;26.00;15.93;;;;;;;;;;8403333;28;20048;-84
2023/03/20 12:24:02;;;;;;;37.72;20.70;;;;;;;;;;8407479;28;20055;-84
2023/03/20 12:28:14;;;;;;;23.10;14.23;;;;;;;;;;8376723;28;20041;-84
2023/03/20 12:32:21;;;;;;;38.70;20.40;;;;;;;;;;8396751;28;20534;-86
2023/03/20 12:36:31;;;;;;;34.20;20.75;;;;;;;;;;8415877;28;20502;-86
2023/03/20 12:40:42;;;;;;;31.27;18.17;;;;;;;;;;8428664;28;20063;-83
2023/03/20 12:44:51;;;;;;;34.13;21.63;;;;;;;;;;8415407;28;20040;-83
2023/03/20 12:49:03;;;;;;;25.55;17.27;;;;;;;;;;8403023;28;20320;-83
2023/03/20 12:53:29;;;;;;;28.30;16.67;;;;;;;;;;8428377;28;20375;-84
2023/03/20 12:57:39;;;;;;;21.45;14.75;;;;;;;;;;8428025;28;20151;-82
2023/03/20 13:01:49;;;;;;;30.52;20.45;;;;;;;;;;8421600;28;20408;-82
2023/03/20 13:06:01;;;;;;;27.95;18.85;;;;;;;;;;8425179;28;20051;-83
2023/03/20 13:10:17;;;;;;;30.27;20.90;;;;;;;;;;8430466;28;20044;-84
2023/03/20 13:14:31;;;;;;;31.40;20.40;;;;;;;;;;8430425;28;20036;-82
2023/03/20 13:18:50;;;;;;;29.60;19.63;;;;;;;;;;8430559;28;20067;-83
2023/03/20 13:23:08;;;;;;;33.15;20.95;;;;;;;;;;8430183;28;20075;-82
2023/03/20 13:27:35;;;;;;;34.35;23.52;;;;;;;;;;8430013;28;20556;-83
2023/03/20 13:31:49;;;;;;;30.35;20.02;;;;;;;;;;8429478;28;20067;-83
2023/03/20 13:35:59;;;;;;;28.17;18.73;;;;;;;;;;8416569;28;20389;-83
2023/03/20 13:40:06;;;;;;;33.20;22.27;;;;;;;;;;8421469;28;20044;-83
2023/03/20 13:44:14;;;;;;;30.17;19.02;;;;;;;;;;8425135;28;20173;-82
2023/03/20 13:48:29;;;;;;;28.23;19.10;;;;;;;;;;8429660;28;20080;-84
2023/03/20 13:52:39;;;;;;;25.35;18.02;;;;;;;;;;8402497;28;20096;-84
2023/03/20 13:56:51;;;;;;;29.95;19.50;;;;;;;;;;8429300;28;20377;-83
2023/03/20 14:00:59;;;;;;;42.72;26.58;;;;;;;;;;8404309;28;20044;-83
2023/03/20 14:05:07;;;;;;;39.22;25.73;;;;;;;;;;8428958;28;20040;-82
2023/03/20 14:09:31;;;;;;;38.55;25.33;;;;;;;;;;8415611;28;20127;-83
2023/03/20 14:13:35;;;;;;;37.08;25.65;;;;;;;;;;8428655;28;20046;-84
2023/03/20 14:17:44;;;;;;;34.03;21.95;;;;;;;;;;8428618;28;20082;-84
2023/03/20 14:21:48;;;;;;;35.97;24.38;;;;;;;;;;8428741;28;20058;-84
2023/03/20 14:25:55;;;;;;;46.05;28.23;;;;;;;;;;8428953;28;20132;-83
2023/03/20 14:30:38;;;;;;;40.80;27.33;;;;;;;;;;8428790;28;20467;-82
2023/03/20 14:34:46;;;;;;;50.63;31.92;;;;;;;;;;8427007;28;20055;-82
2023/03/20 14:38:57;;;;;;;45.05;27.95;;;;;;;;;;8428280;28;20039;-81
2023/03/20 14:43:14;;;;;;;45.45;28.92;;;;;;;;;;8428231;28;20112;-82
2023/03/20 14:47:30;;;;;;;44.78;28.55;;;;;;;;;;8428185;28;20475;-82
2023/03/20 14:51:41;;;;;;;51.40;31.23;;;;;;;;;;8428567;28;20785;-83
2023/03/20 14:56:11;;;;;;;51.90;33.75;;;;;;;;;;8428034;28;20040;-84
2023/03/20 15:00:22;;;;;;;55.85;33.67;;;;;;;;;;8428089;28;20044;-82
2023/03/20 15:04:41;;;;;;;52.90;29.38;;;;;;;;;;8414526;28;20127;-82
2023/03/20 15:08:48;;;;;;;64.13;35.35;;;;;;;;;;8426135;28;20127;-83
2023/03/20 15:12:54;;;;;;;45.28;29.17;;;;;;;;;;8427962;28;20052;-83
2023/03/20 15:17:01;;;;;;;80.40;37.97;;;;;;;;;;8400767;28;20040;-84
2023/03/20 15:21:04;;;;;;;59.92;35.20;;;;;;;;;;8427555;28;20044;-85
2023/03/20 15:25:17;;;;;;;51.70;30.15;;;;;;;;;;8427500;28;20054;-83
2023/03/20 15:29:20;;;;;;;87.05;45.03;;;;;;;;;;8431823;28;20494;-82
2023/03/20 15:33:28;;;;;;;66.63;37.35;;;;;;;;;;8433695;28;20099;-84
2023/03/20 15:37:31;;;;;;;54.15;31.05;;;;;;;;;;8433222;28;20136;-84
2023/03/20 15:41:36;;;;;;;71.80;38.60;;;;;;;;;;8433585;28;20044;-82
2023/03/20 15:45:42;;;;;;;54.17;32.10;;;;;;;;;;8432925;28;20068;-83
2023/03/20 15:49:51;;;;;;;70.43;36.08;;;;;;;;;;8432761;28;20056;-82
2023/03/20 15:53:55;;;;;;;87.30;44.20;;;;;;;;;;8432805;28;20052;-83
2023/03/20 15:58:01;;;;;;;103.40;49.10;;;;;;;;;;8432768;28;20043;-82
2023/03/20 16:02:04;;;;;;;74.38;40.05;;;;;;;;;;8432961;28;20036;-84
2023/03/20 16:06:11;;;;;;;60.13;34.05;;;;;;;;;;8416206;28;20501;-82
2023/03/20 16:10:18;;;;;;;43.88;27.58;;;;;;;;;;8389499;28;20040;-84
2023/03/20 16:14:24;;;;;;;44.65;27.42;;;;;;;;;;8419337;28;20062;-83
2023/03/20 16:18:30;;;;;;;51.13;30.48;;;;;;;;;;8424552;28;20510;-83
2023/03/20 16:22:34;;;;;;;76.25;43.17;;;;;;;;;;8412154;28;20048;-82
2023/03/20 16:26:41;;;;;;;48.00;30.63;;;;;;;;;;8410889;28;20047;-83
2023/03/20 16:31:07;;;;;;;51.85;33.00;;;;;;;;;;8419046;28;20568;-83
2023/03/20 16:35:17;;;;;;;54.80;34.55;;;;;;;;;;8401306;28;20049;-83
2023/03/20 16:39:25;;;;;;;73.97;39.97;;;;;;;;;;8391580;28;20136;-82
2023/03/20 16:43:31;;;;;;;76.90;41.35;;;;;;;;;;8413910;28;20047;-85
2023/03/20 16:47:37;;;;;;;76.82;42.63;;;;;;;;;;8410258;28;20063;-83
2023/03/20 16:51:44;;;;;;;104.28;56.33;;;;;;;;;;8426699;28;20082;-83
2023/03/20 16:55:50;;;;;;;65.60;40.40;;;;;;;;;;8431166;28;20048;-83
2023/03/20 16:59:57;;;;;;;54.55;32.33;;;;;;;;;;8406604;28;20056;-83
2023/03/20 17:04:14;;;;;;;60.88;34.85;;;;;;;;;;8409690;28;20067;-82
2023/03/20 17:08:26;;;;;;;52.42;28.60;;;;;;;;;;8418648;28;20044;-81
2023/03/20 17:12:33;;;;;;;50.47;30.80;;;;;;;;;;8400237;28;20550;-83
2023/03/20 17:16:38;;;;;;;52.50;30.67;;;;;;;;;;8396005;28;20048;-83
2023/03/20 17:20:45;;;;;;;56.60;31.55;;;;;;;;;;8427823;28;20074;-83
2023/03/20 17:24:51;;;;;;;54.25;30.13;;;;;;;;;;8392860;28;20036;-83
2023/03/20 17:28:57;;;;;;;55.58;31.60;;;;;;;;;;8385617;28;20474;-82
2023/03/20 17:33:01;;;;;;;74.32;41.03;;;;;;;;;;8392629;28;20040;-83
2023/03/20 17:37:04;;;;;;;57.38;32.25;;;;;;;;;;8388194;28;20492;-85
2023/03/20 17:41:13;;;;;;;60.88;31.90;;;;;;;;;;8399585;28;20047;-83
2023/03/20 17:45:19;;;;;;;52.17;29.27;;;;;;;;;;8427896;28;20044;-82
2023/03/20 17:49:25;;;;;;;58.03;31.30;;;;;;;;;;8416352;28;20072;-83
2023/03/20 17:53:33;;;;;;;48.55;29.33;;;;;;;;;;8376432;28;20041;-81
2023/03/20 17:57:40;;;;;;;58.88;30.73;;;;;;;;;;8397202;28;20143;-82
2023/03/20 18:01:45;;;;;;;81.20;38.97;;;;;;;;;;8410171;28;20047;-84
2023/03/20 18:05:52;;;;;;;63.00;33.33;;;;;;;;;;8412045;28;20557;-82
2023/03/20 18:09:58;;;;;;;88.70;44.40;;;;;;;;;;8422391;28;20038;-82
2023/03/20 18:14:02;;;;;;;89.57;43.85;;;;;;;;;;8439641;28;20199;-83
2023/03/20 18:18:09;;;;;;;93.25;45.33;;;;;;;;;;8433893;28;20044;-82
2023/03/20 18:22:12;;;;;;;99.60;48.30;;;;;;;;;;8432173;28;20126;-83
2023/03/20 18:26:21;;;;;;;114.75;54.00;;;;;;;;;;8428593;28;20044;-82
2023/03/20 18:30:30;;;;;;;113.65;53.42;;;;;;;;;;8415828;28;20051;-83
2023/03/20 18:34:37;;;;;;;129.13;58.63;;;;;;;;;;8419756;28;20047;-84
2023/03/20 18:38:41;;;;;;;149.75;64.15;;;;;;;;;;8397925;28;20434;-83
2023/03/20 18:42:46;;;;;;;164.48;68.30;;;;;;;;;;8402579;28;20124;-83
2023/03/20 18:46:51;;;;;;;216.60;82.10;;;;;;;;;;8411841;28;20057;-82
2023/03/20 18:51:00;;;;;;;162.80;68.70;;;;;;;;;;8412067;28;20398;-84
2023/03/20 18:55:05;;;;;;;158.43;60.00;;;;;;;;;;8405302;28;20123;-82
2023/03/20 18:59:13;;;;;;;104.15;45.97;;;;;;;;;;8427298;28;20055;-84
2023/03/20 19:03:22;;;;;;;367.33;118.07;;;;;;;;;;8430202;28;20070;-84
2023/03/20 19:07:30;;;;;;;424.85;156.48;;;;;;;;;;8412967;28;20040;-85
2023/03/20 19:11:37;;;;;;;370.67;129.30;;;;;;;;;;8409272;28;20047;-84
2023/03/20 19:15:42;;;;;;;177.82;69.88;;;;;;;;;;8416291;28;20131;-84
2023/03/20 19:19:46;;;;;;;121.68;51.42;;;;;;;;;;8421089;28;20060;-82
2023/03/20 19:23:55;;;;;;;206.60;92.07;;;;;;;;;;8397798;28;20048;-82
2023/03/20 19:28:01;;;;;;;236.50;98.07;;;;;;;;;;8399971;28;20094;-83
2023/03/20 19:32:06;;;;;;;143.60;58.20;;;;;;;;;;8433450;28;20051;-83
2023/03/20 19:36:22;;;;;;;213.13;82.65;;;;;;;;;;8372917;28;20052;-84
2023/03/20 19:40:43;;;;;;;216.13;82.28;;;;;;;;;;8412695;28;20064;-83
2023/03/20 19:44:48;;;;;;;171.32;72.20;;;;;;;;;;8427816;28;20066;-84
2023/03/20 19:48:57;;;;;;;174.80;73.35;;;;;;;;;;8432998;28;20100;-83
2023/03/20 19:53:13;;;;;;;306.67;121.53;;;;;;;;;;8414988;28;20469;-83
2023/03/20 19:57:26;;;;;;;161.48;68.63;;;;;;;;;;8432711;28;20044;-82
2023/03/20 20:01:31;;;;;;;206.07;87.75;;;;;;;;;;8432267;28;20036;-82
2023/03/20 20:05:38;;;;;;;140.43;67.03;;;;;;;;;;8411462;28;20493;-83
2023/03/20 20:09:43;;;;;;;168.90;72.80;;;;;;;;;;8409887;28;20081;-81
2023/03/20 20:13:51;;;;;;;181.43;77.43;;;;;;;;;;8431711;28;20044;-83
2023/03/20 20:18:00;;;;;;;206.02;89.20;;;;;;;;;;8425830;28;20109;-82
2023/03/20 20:22:05;;;;;;;169.25;71.32;;;;;;;;;;8432197;28;20055;-84
2023/03/20 20:26:11;;;;;;;126.35;54.05;;;;;;;;;;8418056;28;20051;-84
2023/03/20 20:30:22;;;;;;;125.13;55.83;;;;;;;;;;8431734;28;20048;-83
2023/03/20 20:34:27;;;;;;;126.85;52.63;;;;;;;;;;8431377;28;20446;-83
2023/03/20 20:38:30;;;;;;;201.38;64.85;;;;;;;;;;8431399;28;20052;-84
2023/03/20 20:42:36;;;;;;;161.48;64.35;;;;;;;;;;8430976;28;20467;-82
2023/03/20 20:46:47;;;;;;;100.78;47.72;;;;;;;;;;8402348;28;20466;-83
2023/03/20 20:50:52;;;;;;;89.47;41.35;;;;;;;;;;8416222;28;20052;-83
2023/03/20 20:54:56;;;;;;;85.78;40.05;;;;;;;;;;8418036;28;20127;-83
2023/03/20 20:59:01;;;;;;;75.70;35.63;;;;;;;;;;8422318;28;20554;-83
2023/03/20 21:03:12;;;;;;;89.10;40.40;;;;;;;;;;8430383;28;20454;-83
2023/03/20 21:07:15;;;;;;;91.65;38.72;;;;;;;;;;8396831;28;20048;-83
2023/03/20 21:11:21;;;;;;;100.40;39.55;;;;;;;;;;8417250;28;20066;-84
2023/03/20 21:15:25;;;;;;;98.38;40.35;;;;;;;;;;8422788;28;20112;-83
2023/03/20 21:19:35;;;;;;;99.03;40.38;;;;;;;;;;8430363;28;20054;-84
2023/03/20 21:23:40;;;;;;;99.38;39.67;;;;;;;;;;8422714;28;20526;-84
2023/03/20 21:27:44;;;;;;;78.78;34.10;;;;;;;;;;8424324;28;20126;-84
2023/03/20 21:31:48;;;;;;;95.53;40.80;;;;;;;;;;8429785;28;20047;-83
2023/03/20 21:35:53;;;;;;;84.80;36.95;;;;;;;;;;8411958;28;20421;-84
2023/03/20 21:39:58;;;;;;;92.43;38.85;;;;;;;;;;8429946;28;20044;-83
2023/03/20 21:44:00;;;;;;;87.00;37.45;;;;;;;;;;8428310;28;20040;-83
2023/03/20 21:48:04;;;;;;;91.38;37.88;;;;;;;;;;8417624;28;20054;-84
2023/03/20 21:52:12;;;;;;;76.80;36.55;;;;;;;;;;8429704;28;20062;-83
2023/03/20 21:56:17;;;;;;;70.15;32.47;;;;;;;;;;8407114;28;20079;-84
2023/03/20 22:00:20;;;;;;;68.57;32.38;;;;;;;;;;8424918;28;20089;-84
2023/03/20 22:04:23;;;;;;;73.60;32.50;;;;;;;;;;8429267;28;20135;-84
2023/03/20 22:08:27;;;;;;;78.47;34.35;;;;;;;;;;8429147;28;20054;-83
2023/03/20 22:12:30;;;;;;;80.80;34.05;;;;;;;;;;8419274;28;20044;-84
2023/03/20 22:16:33;;;;;;;73.55;31.67;;;;;;;;;;8424891;28;20092;-84
2023/03/20 22:20:36;;;;;;;71.68;31.65;;;;;;;;;;8420214;28;20044;-83
2023/03/20 22:24:41;;;;;;;67.82;31.90;;;;;;;;;;8424817;28;20048;-83
2023/03/20 22:28:44;;;;;;;67.80;30.67;;;;;;;;;;8429475;28;20399;-83
2023/03/20 22:32:47;;;;;;;73.75;31.65;;;;;;;;;;8428675;28;20044;-83
2023/03/20 22:36:50;;;;;;;69.95;31.00;;;;;;;;;;8405412;28;20072;-84
2023/03/20 22:40:55;;;;;;;70.07;30.08;;;;;;;;;;8419746;28;20527;-83
2023/03/20 22:44:58;;;;;;;68.20;30.60;;;;;;;;;;8425443;28;20475;-84
2023/03/20 22:49:01;;;;;;;65.25;30.23;;;;;;;;;;8434792;28;20060;-83
2023/03/20 22:53:03;;;;;;;66.60;29.42;;;;;;;;;;8435052;28;20048;-84
2023/03/20 22:57:08;;;;;;;64.20;27.20;;;;;;;;;;8435045;28;20040;-83
2023/03/20 23:01:11;;;;;;;64.60;30.42;;;;;;;;;;8434659;28;20044;-83
2023/03/20 23:05:32;;;;;;;69.72;28.98;;;;;;;;;;8434731;28;20066;-84
2023/03/20 23:09:35;;;;;;;63.75;28.63;;;;;;;;;;8434492;28;20051;-85
2023/03/20 23:13:39;;;;;;;66.85;30.48;;;;;;;;;;8434111;28;20040;-83
2023/03/20 23:17:42;;;;;;;54.22;27.98;;;;;;;;;;8434402;28;20040;-83
2023/03/20 23:21:45;;;;;;;61.33;28.95;;;;;;;;;;8434393;28;20040;-84
2023/03/20 23:25:48;;;;;;;52.58;27.27;;;;;;;;;;8434282;28;20059;-83
2023/03/20 23:29:52;;;;;;;64.35;29.67;;;;;;;;;;8433328;28;20480;-83
2023/03/20 23:33:57;;;;;;;65.82;30.23;;;;;;;;;;8408481;28;20089;-83
2023/03/20 23:38:00;;;;;;;52.97;27.88;;;;;;;;;;8433261;28;20552;-83
2023/03/20 23:42:03;;;;;;;51.63;24.05;;;;;;;;;;8433465;28;20131;-83
2023/03/20 23:46:08;;;;;;;60.83;27.63;;;;;;;;;;8433146;28;20399;-84
2023/03/20 23:50:12;;;;;;;63.45;27.63;;;;;;;;;;8431632;28;20048;-84
2023/03/20 23:54:15;;;;;;;55.60;28.52;;;;;;;;;;8433035;28;20555;-83